sensor_id;sensor_type;location;lat;lon;timestamp;pressure;altitude;pressure_sealevel;temperature;humidity
40788;BME280;26497;52.494;7.546;2024-02-23T00:02:14;97737.00;;;10.50;71.95
40788;BME280;26497;52.494;7.546;2024-02-23T00:04:41;97753.03;;;10.65;71.26
40788;BME280;26497;52.494;7.546;2024-02-23T00:07:08;97761.75;;;10.27;71.45
40788;BME280;26497;52.494;7.546;2024-02-23T00:09:35;97764.56;;;10.22;72.13
40788;BME280;26497;52.494;7.546;2024-02-23T00:12:03;97777.59;;;10.06;72.50
40788;BME280;26497;52.494;7.546;2024-02-23T00:14:31;97791.41;;;10.11;72.76
40788;BME280;26497;52.494;7.546;2024-02-23T00:17:01;97807.56;;;9.83;73.34
40788;BME280;26497;52.494;7.546;2024-02-23T00:19:30;97811.56;;;9.71;73.56
40788;BME280;26497;52.494;7.546;2024-02-23T00:21:57;97818.34;;;9.56;73.79
40788;BME280;26497;52.494;7.546;2024-02-23T00:24:25;97829.16;;;9.27;74.76
40788;BME280;26497;52.494;7.546;2024-02-23T00:26:52;97834.13;;;9.34;74.75
40788;BME280;26497;52.494;7.546;2024-02-23T00:29:19;97850.03;;;9.53;73.90
40788;BME280;26497;52.494;7.546;2024-02-23T00:31:48;97849.19;;;9.30;73.54
40788;BME280;26497;52.494;7.546;2024-02-23T00:34:15;97864.47;;;9.42;73.15
40788;BME280;26497;52.494;7.546;2024-02-23T00:36:43;97878.91;;;9.32;72.96
40788;BME280;26497;52.494;7.546;2024-02-23T00:39:13;97886.56;;;9.16;74.46
40788;BME280;26497;52.494;7.546;2024-02-23T00:41:43;97887.84;;;9.06;75.06
40788;BME280;26497;52.494;7.546;2024-02-23T00:44:10;97899.63;;;9.40;73.73
40788;BME280;26497;52.494;7.546;2024-02-23T00:46:38;97910.56;;;9.53;72.81
40788;BME280;26497;52.494;7.546;2024-02-23T00:49:07;97928.09;;;9.30;73.80
40788;BME280;26497;52.494;7.546;2024-02-23T00:51:34;97927.19;;;9.07;73.89
40788;BME280;26497;52.494;7.546;2024-02-23T00:54:01;97938.63;;;9.30;73.20
40788;BME280;26497;52.494;7.546;2024-02-23T00:56:28;97934.81;;;9.37;72.33
40788;BME280;26497;52.494;7.546;2024-02-23T00:58:55;97943.75;;;9.33;71.83
40788;BME280;26497;52.494;7.546;2024-02-23T01:01:22;97957.47;;;8.70;74.04
40788;BME280;26497;52.494;7.546;2024-02-23T01:03:49;97946.41;;;8.85;73.43
40788;BME280;26497;52.494;7.546;2024-02-23T01:06:17;97954.19;;;8.89;74.13
40788;BME280;26497;52.494;7.546;2024-02-23T01:08:44;97975.63;;;8.52;75.26
40788;BME280;26497;52.494;7.546;2024-02-23T01:11:11;97972.25;;;8.49;75.37
40788;BME280;26497;52.494;7.546;2024-02-23T01:13:38;97982.75;;;8.49;75.17
40788;BME280;26497;52.494;7.546;2024-02-23T01:16:05;97995.53;;;8.60;75.22
40788;BME280;26497;52.494;7.546;2024-02-23T01:18:34;98005.84;;;8.37;76.04
40788;BME280;26497;52.494;7.546;2024-02-23T01:21:01;98004.94;;;8.65;75.36
40788;BME280;26497;52.494;7.546;2024-02-23T01:23:29;98017.22;;;8.65;74.33
40788;BME280;26497;52.494;7.546;2024-02-23T01:25:56;98038.34;;;8.87;74.15
40788;BME280;26497;52.494;7.546;2024-02-23T01:28:25;98043.97;;;9.02;73.75
40788;BME280;26497;52.494;7.546;2024-02-23T01:30:52;98052.84;;;8.74;73.37
40788;BME280;26497;52.494;7.546;2024-02-23T01:33:18;98039.53;;;7.97;76.20
40788;BME280;26497;52.494;7.546;2024-02-23T01:35:45;98042.47;;;8.15;75.50
40788;BME280;26497;52.494;7.546;2024-02-23T01:38:12;98043.84;;;8.27;74.22
40788;BME280;26497;52.494;7.546;2024-02-23T01:40:46;98040.47;;;8.23;73.69
40788;BME280;26497;52.494;7.546;2024-02-23T01:43:13;98058.81;;;8.52;72.53
40788;BME280;26497;52.494;7.546;2024-02-23T01:45:40;98071.28;;;8.45;73.07
40788;BME280;26497;52.494;7.546;2024-02-23T01:48:07;98076.41;;;8.75;71.50
40788;BME280;26497;52.494;7.546;2024-02-23T01:50:34;98072.38;;;8.38;73.04
40788;BME280;26497;52.494;7.546;2024-02-23T01:53:02;98078.63;;;8.62;72.96
40788;BME280;26497;52.494;7.546;2024-02-23T01:55:29;98083.44;;;8.48;73.31
40788;BME280;26497;52.494;7.546;2024-02-23T01:57:57;98089.63;;;8.74;72.23
40788;BME280;26497;52.494;7.546;2024-02-23T02:00:25;98088.38;;;8.59;72.77
40788;BME280;26497;52.494;7.546;2024-02-23T02:02:52;98086.81;;;8.24;74.58
40788;BME280;26497;52.494;7.546;2024-02-23T02:05:19;98097.28;;;8.54;73.19
40788;BME280;26497;52.494;7.546;2024-02-23T02:07:47;98087.81;;;8.49;73.56
40788;BME280;26497;52.494;7.546;2024-02-23T02:10:16;98093.19;;;8.71;73.25
40788;BME280;26497;52.494;7.546;2024-02-23T02:12:44;98094.91;;;8.72;73.32
40788;BME280;26497;52.494;7.546;2024-02-23T02:15:12;98098.13;;;8.26;74.35
40788;BME280;26497;52.494;7.546;2024-02-23T02:17:39;98099.72;;;8.59;73.55
40788;BME280;26497;52.494;7.546;2024-02-23T02:20:08;98088.84;;;8.70;72.60
40788;BME280;26497;52.494;7.546;2024-02-23T02:22:37;98107.50;;;8.07;74.18
40788;BME280;26497;52.494;7.546;2024-02-23T02:25:05;98105.78;;;8.06;74.47
40788;BME280;26497;52.494;7.546;2024-02-23T02:27:33;98124.31;;;8.30;74.19
40788;BME280;26497;52.494;7.546;2024-02-23T02:29:59;98110.56;;;7.93;75.43
40788;BME280;26497;52.494;7.546;2024-02-23T02:32:28;98127.63;;;8.63;72.95
40788;BME280;26497;52.494;7.546;2024-02-23T02:34:55;98129.97;;;8.71;71.89
40788;BME280;26497;52.494;7.546;2024-02-23T02:37:22;98128.34;;;8.68;71.97
40788;BME280;26497;52.494;7.546;2024-02-23T02:39:49;98146.63;;;8.43;72.19
40788;BME280;26497;52.494;7.546;2024-02-23T02:42:16;98149.03;;;8.22;72.84
40788;BME280;26497;52.494;7.546;2024-02-23T02:44:43;98142.09;;;7.91;73.50
40788;BME280;26497;52.494;7.546;2024-02-23T02:47:10;98160.53;;;7.88;73.88
40788;BME280;26497;52.494;7.546;2024-02-23T02:49:39;98138.16;;;7.76;73.76
40788;BME280;26497;52.494;7.546;2024-02-23T02:52:06;98163.72;;;8.00;73.16
40788;BME280;26497;52.494;7.546;2024-02-23T02:54:34;98173.13;;;8.07;72.87
40788;BME280;26497;52.494;7.546;2024-02-23T02:57:01;98167.69;;;7.83;72.83
40788;BME280;26497;52.494;7.546;2024-02-23T02:59:28;98176.47;;;7.82;73.64
40788;BME280;26497;52.494;7.546;2024-02-23T03:01:55;98177.00;;;7.93;73.50
40788;BME280;26497;52.494;7.546;2024-02-23T03:04:22;98167.31;;;7.65;74.81
40788;BME280;26497;52.494;7.546;2024-02-23T03:06:51;98180.16;;;7.75;74.38
40788;BME280;26497;52.494;7.546;2024-02-23T03:09:18;98207.34;;;8.04;73.60
40788;BME280;26497;52.494;7.546;2024-02-23T03:11:45;98209.78;;;8.40;72.26
40788;BME280;26497;52.494;7.546;2024-02-23T03:14:12;98211.34;;;8.16;70.59
40788;BME280;26497;52.494;7.546;2024-02-23T03:16:39;98216.81;;;7.78;71.59
40788;BME280;26497;52.494;7.546;2024-02-23T03:19:06;98216.28;;;7.96;70.91
40788;BME280;26497;52.494;7.546;2024-02-23T03:21:34;98207.19;;;8.08;70.20
40788;BME280;26497;52.494;7.546;2024-02-23T03:24:03;98221.75;;;8.19;70.31
40788;BME280;26497;52.494;7.546;2024-02-23T03:26:30;98224.31;;;7.92;71.83
40788;BME280;26497;52.494;7.546;2024-02-23T03:28:57;98230.06;;;8.05;71.94
40788;BME280;26497;52.494;7.546;2024-02-23T03:31:24;98237.50;;;8.50;70.29
40788;BME280;26497;52.494;7.546;2024-02-23T03:33:51;98227.00;;;8.50;70.06
40788;BME280;26497;52.494;7.546;2024-02-23T03:36:18;98239.28;;;8.48;70.65
40788;BME280;26497;52.494;7.546;2024-02-23T03:38:45;98233.91;;;8.81;69.34
40788;BME280;26497;52.494;7.546;2024-02-23T03:41:13;98243.38;;;8.87;69.41
40788;BME280;26497;52.494;7.546;2024-02-23T03:43:40;98234.63;;;8.58;70.39
40788;BME280;26497;52.494;7.546;2024-02-23T03:46:07;98231.75;;;8.66;69.87
40788;BME280;26497;52.494;7.546;2024-02-23T03:48:34;98234.72;;;8.55;71.42
40788;BME280;26497;52.494;7.546;2024-02-23T03:51:03;98229.91;;;8.69;70.95
40788;BME280;26497;52.494;7.546;2024-02-23T03:53:30;98238.72;;;8.95;70.16
40788;BME280;26497;52.494;7.546;2024-02-23T03:55:57;98241.56;;;9.16;69.10
40788;BME280;26497;52.494;7.546;2024-02-23T03:58:26;98244.91;;;9.21;68.75
40788;BME280;26497;52.494;7.546;2024-02-23T04:00:53;98240.56;;;9.19;69.32
40788;BME280;26497;52.494;7.546;2024-02-23T04:03:20;98248.78;;;9.09;69.95
40788;BME280;26497;52.494;7.546;2024-02-23T04:05:47;98254.50;;;9.22;69.48
40788;BME280;26497;52.494;7.546;2024-02-23T04:08:14;98253.03;;;9.13;70.42
40788;BME280;26497;52.494;7.546;2024-02-23T04:10:43;98252.31;;;9.08;70.56
40788;BME280;26497;52.494;7.546;2024-02-23T04:13:10;98246.94;;;8.84;71.49
40788;BME280;26497;52.494;7.546;2024-02-23T04:15:40;98248.38;;;8.95;71.07
40788;BME280;26497;52.494;7.546;2024-02-23T04:18:07;98248.78;;;9.35;70.03
40788;BME280;26497;52.494;7.546;2024-02-23T04:20:34;98252.41;;;9.57;68.75
40788;BME280;26497;52.494;7.546;2024-02-23T04:23:01;98252.09;;;9.67;68.32
40788;BME280;26497;52.494;7.546;2024-02-23T04:25:28;98263.91;;;9.80;67.66
40788;BME280;26497;52.494;7.546;2024-02-23T04:27:55;98257.09;;;9.74;68.03
40788;BME280;26497;52.494;7.546;2024-02-23T04:30:22;98254.44;;;9.49;68.43
40788;BME280;26497;52.494;7.546;2024-02-23T04:32:50;98258.69;;;9.01;68.96
40788;BME280;26497;52.494;7.546;2024-02-23T04:35:17;98253.41;;;9.28;68.27
40788;BME280;26497;52.494;7.546;2024-02-23T04:37:44;98250.78;;;9.28;67.59
40788;BME280;26497;52.494;7.546;2024-02-23T04:40:12;98253.34;;;8.47;69.57
40788;BME280;26497;52.494;7.546;2024-02-23T04:42:39;98273.59;;;8.72;69.11
40788;BME280;26497;52.494;7.546;2024-02-23T04:45:07;98273.41;;;8.50;68.93
40788;BME280;26497;52.494;7.546;2024-02-23T04:47:34;98276.94;;;8.77;68.60
40788;BME280;26497;52.494;7.546;2024-02-23T04:50:03;98279.97;;;8.35;69.98
40788;BME280;26497;52.494;7.546;2024-02-23T04:52:30;98290.63;;;8.60;69.02
40788;BME280;26497;52.494;7.546;2024-02-23T04:54:57;98284.91;;;8.76;67.77
40788;BME280;26497;52.494;7.546;2024-02-23T04:57:24;98299.13;;;8.97;67.67
40788;BME280;26497;52.494;7.546;2024-02-23T04:59:51;98286.06;;;8.94;67.24
40788;BME280;26497;52.494;7.546;2024-02-23T05:02:18;98308.16;;;9.17;66.68
40788;BME280;26497;52.494;7.546;2024-02-23T05:04:45;98308.63;;;9.01;67.07
40788;BME280;26497;52.494;7.546;2024-02-23T05:07:14;98304.41;;;8.67;66.53
40788;BME280;26497;52.494;7.546;2024-02-23T05:09:42;98313.97;;;8.39;68.05
40788;BME280;26497;52.494;7.546;2024-02-23T05:12:09;98324.78;;;8.89;67.44
40788;BME280;26497;52.494;7.546;2024-02-23T05:14:36;98327.63;;;9.11;65.84
40788;BME280;26497;52.494;7.546;2024-02-23T05:17:04;98323.63;;;9.26;64.77
40788;BME280;26497;52.494;7.546;2024-02-23T05:19:31;98327.84;;;9.03;64.67
40788;BME280;26497;52.494;7.546;2024-02-23T05:22:01;98329.81;;;8.96;64.80
40788;BME280;26497;52.494;7.546;2024-02-23T05:24:30;98328.16;;;9.21;63.77
40788;BME280;26497;52.494;7.546;2024-02-23T05:26:58;98335.56;;;8.81;65.91
40788;BME280;26497;52.494;7.546;2024-02-23T05:29:27;98331.84;;;8.87;65.74
40788;BME280;26497;52.494;7.546;2024-02-23T05:31:55;98340.34;;;8.96;65.08
40788;BME280;26497;52.494;7.546;2024-02-23T05:34:22;98338.38;;;8.73;65.55
40788;BME280;26497;52.494;7.546;2024-02-23T05:36:49;98331.59;;;8.66;65.91
40788;BME280;26497;52.494;7.546;2024-02-23T05:39:16;98341.09;;;8.72;66.02
40788;BME280;26497;52.494;7.546;2024-02-23T05:41:45;98340.41;;;9.22;64.29
40788;BME280;26497;52.494;7.546;2024-02-23T05:44:13;98335.97;;;9.51;63.82
40788;BME280;26497;52.494;7.546;2024-02-23T05:46:42;98333.63;;;9.14;64.14
40788;BME280;26497;52.494;7.546;2024-02-23T05:49:09;98346.81;;;9.41;63.24
40788;BME280;26497;52.494;7.546;2024-02-23T05:51:37;98348.13;;;9.55;63.10
40788;BME280;26497;52.494;7.546;2024-02-23T05:54:04;98356.00;;;9.55;62.75
40788;BME280;26497;52.494;7.546;2024-02-23T05:56:34;98367.59;;;9.49;62.55
40788;BME280;26497;52.494;7.546;2024-02-23T05:59:04;98360.59;;;9.75;62.16
40788;BME280;26497;52.494;7.546;2024-02-23T06:01:33;98359.34;;;9.33;63.50
40788;BME280;26497;52.494;7.546;2024-02-23T06:04:03;98362.38;;;9.74;62.57
40788;BME280;26497;52.494;7.546;2024-02-23T06:06:31;98374.72;;;9.46;62.78
40788;BME280;26497;52.494;7.546;2024-02-23T06:09:02;98365.31;;;9.38;62.37
40788;BME280;26497;52.494;7.546;2024-02-23T06:11:31;98373.81;;;9.73;61.24
40788;BME280;26497;52.494;7.546;2024-02-23T06:14:00;98374.53;;;9.79;60.80
40788;BME280;26497;52.494;7.546;2024-02-23T06:16:30;98374.25;;;9.86;60.31
40788;BME280;26497;52.494;7.546;2024-02-23T06:18:58;98379.69;;;9.55;60.44
40788;BME280;26497;52.494;7.546;2024-02-23T06:21:25;98363.72;;;9.86;60.30
40788;BME280;26497;52.494;7.546;2024-02-23T06:23:53;98386.69;;;9.56;60.40
40788;BME280;26497;52.494;7.546;2024-02-23T06:26:25;98386.69;;;9.56;59.98
40788;BME280;26497;52.494;7.546;2024-02-23T06:28:53;98379.50;;;9.61;59.86
40788;BME280;26497;52.494;7.546;2024-02-23T06:31:24;98395.31;;;9.59;60.42
40788;BME280;26497;52.494;7.546;2024-02-23T06:33:53;98401.56;;;9.57;59.96
40788;BME280;26497;52.494;7.546;2024-02-23T06:36:21;98408.66;;;9.55;59.61
40788;BME280;26497;52.494;7.546;2024-02-23T06:38:48;98401.19;;;9.68;59.46
40788;BME280;26497;52.494;7.546;2024-02-23T06:41:15;98413.81;;;9.85;59.43
40788;BME280;26497;52.494;7.546;2024-02-23T06:43:46;98411.81;;;9.92;59.43
40788;BME280;26497;52.494;7.546;2024-02-23T06:46:13;98408.44;;;9.61;60.14
40788;BME280;26497;52.494;7.546;2024-02-23T06:48:40;98409.44;;;9.57;60.37
40788;BME280;26497;52.494;7.546;2024-02-23T06:51:12;98413.75;;;10.12;59.52
40788;BME280;26497;52.494;7.546;2024-02-23T06:53:46;98418.13;;;10.13;58.78
40788;BME280;26497;52.494;7.546;2024-02-23T06:56:13;98415.84;;;10.54;57.67
40788;BME280;26497;52.494;7.546;2024-02-23T06:58:40;98416.09;;;10.72;57.07
40788;BME280;26497;52.494;7.546;2024-02-23T07:01:07;98419.09;;;10.61;56.94
40788;BME280;26497;52.494;7.546;2024-02-23T07:03:38;98428.78;;;10.60;56.89
40788;BME280;26497;52.494;7.546;2024-02-23T07:06:06;98430.25;;;10.44;57.60
40788;BME280;26497;52.494;7.546;2024-02-23T07:08:36;98425.06;;;10.42;57.51
40788;BME280;26497;52.494;7.546;2024-02-23T07:11:03;98425.41;;;10.04;58.41
40788;BME280;26497;52.494;7.546;2024-02-23T07:13:30;98435.75;;;10.11;58.83
40788;BME280;26497;52.494;7.546;2024-02-23T07:15:59;98437.34;;;9.89;59.34
40788;BME280;26497;52.494;7.546;2024-02-23T07:18:27;98424.84;;;10.22;58.78
40788;BME280;26497;52.494;7.546;2024-02-23T07:20:55;98425.88;;;9.92;58.74
40788;BME280;26497;52.494;7.546;2024-02-23T07:23:22;98427.88;;;10.36;57.72
40788;BME280;26497;52.494;7.546;2024-02-23T07:25:53;98415.97;;;10.75;56.42
40788;BME280;26497;52.494;7.546;2024-02-23T07:28:20;98425.88;;;10.92;55.80
40788;BME280;26497;52.494;7.546;2024-02-23T07:30:48;98415.09;;;10.98;54.91
40788;BME280;26497;52.494;7.546;2024-02-23T07:33:15;98417.84;;;10.47;55.69
40788;BME280;26497;52.494;7.546;2024-02-23T07:35:42;98409.78;;;11.00;55.06
40788;BME280;26497;52.494;7.546;2024-02-23T07:38:09;98420.94;;;11.06;55.03
40788;BME280;26497;52.494;7.546;2024-02-23T07:40:37;98412.69;;;10.68;55.73
40788;BME280;26497;52.494;7.546;2024-02-23T07:43:06;98422.94;;;10.52;56.35
40788;BME280;26497;52.494;7.546;2024-02-23T07:45:35;98432.03;;;10.93;55.36
40788;BME280;26497;52.494;7.546;2024-02-23T07:48:02;98418.25;;;10.84;55.31
40788;BME280;26497;52.494;7.546;2024-02-23T07:50:29;98393.72;;;10.82;54.92
40788;BME280;26497;52.494;7.546;2024-02-23T07:52:56;98420.44;;;10.97;55.10
40788;BME280;26497;52.494;7.546;2024-02-23T07:55:23;98425.38;;;11.06;55.10
40788;BME280;26497;52.494;7.546;2024-02-23T07:57:50;98424.13;;;10.93;54.83
40788;BME280;26497;52.494;7.546;2024-02-23T08:00:19;98423.75;;;11.02;54.26
40788;BME280;26497;52.494;7.546;2024-02-23T08:02:46;98414.38;;;10.71;54.83
40788;BME280;26497;52.494;7.546;2024-02-23T08:05:14;98434.56;;;11.18;54.29
40788;BME280;26497;52.494;7.546;2024-02-23T08:07:41;98422.41;;;10.91;53.69
40788;BME280;26497;52.494;7.546;2024-02-23T08:10:09;98422.66;;;11.07;53.88
40788;BME280;26497;52.494;7.546;2024-02-23T08:12:37;98425.94;;;11.14;53.18
40788;BME280;26497;52.494;7.546;2024-02-23T08:15:06;98427.94;;;10.60;53.30
40788;BME280;26497;52.494;7.546;2024-02-23T08:17:34;98420.78;;;10.87;52.72
40788;BME280;26497;52.494;7.546;2024-02-23T08:20:02;98424.28;;;11.34;52.29
40788;BME280;26497;52.494;7.546;2024-02-23T08:22:29;98412.63;;;11.62;51.16
40788;BME280;26497;52.494;7.546;2024-02-23T08:24:59;98418.06;;;11.35;50.65
40788;BME280;26497;52.494;7.546;2024-02-23T08:27:26;98427.41;;;11.66;50.60
40788;BME280;26497;52.494;7.546;2024-02-23T08:29:53;98414.72;;;11.76;50.12
40788;BME280;26497;52.494;7.546;2024-02-23T08:32:20;98427.34;;;11.45;50.59
40788;BME280;26497;52.494;7.546;2024-02-23T08:34:48;98427.97;;;11.52;51.03
40788;BME280;26497;52.494;7.546;2024-02-23T08:37:15;98430.91;;;11.44;51.09
40788;BME280;26497;52.494;7.546;2024-02-23T08:39:42;98434.41;;;11.67;50.94
40788;BME280;26497;52.494;7.546;2024-02-23T08:42:12;98422.53;;;12.00;50.10
40788;BME280;26497;52.494;7.546;2024-02-23T08:44:39;98422.38;;;11.82;50.15
40788;BME280;26497;52.494;7.546;2024-02-23T08:47:07;98432.94;;;12.25;49.76
40788;BME280;26497;52.494;7.546;2024-02-23T08:49:35;98424.13;;;12.04;48.97
40788;BME280;26497;52.494;7.546;2024-02-23T08:52:04;98421.97;;;12.14;49.03
40788;BME280;26497;52.494;7.546;2024-02-23T08:54:31;98424.63;;;12.34;48.44
40788;BME280;26497;52.494;7.546;2024-02-23T08:56:58;98422.59;;;12.60;48.16
40788;BME280;26497;52.494;7.546;2024-02-23T08:59:25;98433.00;;;12.44;48.20
40788;BME280;26497;52.494;7.546;2024-02-23T09:01:52;98419.47;;;12.52;47.55
40788;BME280;26497;52.494;7.546;2024-02-23T09:04:22;98426.53;;;12.31;47.63
40788;BME280;26497;52.494;7.546;2024-02-23T09:06:49;98421.47;;;12.66;47.08
40788;BME280;26497;52.494;7.546;2024-02-23T09:09:20;98422.97;;;12.72;47.18
40788;BME280;26497;52.494;7.546;2024-02-23T09:11:47;98427.97;;;13.18;45.84
40788;BME280;26497;52.494;7.546;2024-02-23T09:14:14;98429.75;;;13.55;44.44
40788;BME280;26497;52.494;7.546;2024-02-23T09:16:41;98438.09;;;13.65;43.44
40788;BME280;26497;52.494;7.546;2024-02-23T09:19:08;98430.03;;;13.49;43.96
40788;BME280;26497;52.494;7.546;2024-02-23T09:21:35;98431.72;;;12.93;44.41
40788;BME280;26497;52.494;7.546;2024-02-23T09:24:02;98425.44;;;12.95;45.11
40788;BME280;26497;52.494;7.546;2024-02-23T09:26:30;98433.13;;;12.81;44.65
40788;BME280;26497;52.494;7.546;2024-02-23T09:28:58;98435.78;;;12.81;45.61
40788;BME280;26497;52.494;7.546;2024-02-23T09:31:25;98449.75;;;13.04;44.64
40788;BME280;26497;52.494;7.546;2024-02-23T09:33:53;98447.75;;;12.50;45.62
40788;BME280;26497;52.494;7.546;2024-02-23T09:36:21;98444.22;;;12.29;45.76
40788;BME280;26497;52.494;7.546;2024-02-23T09:38:48;98447.34;;;12.38;46.06
40788;BME280;26497;52.494;7.546;2024-02-23T09:41:19;98461.63;;;12.55;45.83
40788;BME280;26497;52.494;7.546;2024-02-23T09:43:48;98448.00;;;12.44;46.30
40788;BME280;26497;52.494;7.546;2024-02-23T09:46:17;98451.31;;;12.28;45.33
40788;BME280;26497;52.494;7.546;2024-02-23T09:48:51;98451.59;;;12.43;45.76
40788;BME280;26497;52.494;7.546;2024-02-23T09:51:18;98446.81;;;12.51;45.06
40788;BME280;26497;52.494;7.546;2024-02-23T09:53:50;98447.53;;;12.54;45.19
40788;BME280;26497;52.494;7.546;2024-02-23T09:56:17;98447.00;;;12.86;45.18
40788;BME280;26497;52.494;7.546;2024-02-23T09:58:45;98448.81;;;13.05;44.24
40788;BME280;26497;52.494;7.546;2024-02-23T10:01:15;98454.47;;;13.35;43.89
40788;BME280;26497;52.494;7.546;2024-02-23T10:03:46;98449.16;;;13.35;43.87
40788;BME280;26497;52.494;7.546;2024-02-23T10:06:14;98449.09;;;12.98;44.43
40788;BME280;26497;52.494;7.546;2024-02-23T10:08:41;98451.25;;;12.90;44.47
40788;BME280;26497;52.494;7.546;2024-02-23T10:11:17;98453.50;;;12.79;44.61
40788;BME280;26497;52.494;7.546;2024-02-23T10:13:49;98465.53;;;12.86;44.41
40788;BME280;26497;52.494;7.546;2024-02-23T10:16:19;98467.38;;;12.84;44.39
40788;BME280;26497;52.494;7.546;2024-02-23T10:18:47;98469.16;;;13.04;44.12
40788;BME280;26497;52.494;7.546;2024-02-23T10:21:17;98465.72;;;12.42;44.96
40788;BME280;26497;52.494;7.546;2024-02-23T10:23:44;98472.59;;;12.46;44.73
40788;BME280;26497;52.494;7.546;2024-02-23T10:26:11;98466.13;;;12.32;44.49
40788;BME280;26497;52.494;7.546;2024-02-23T10:28:38;98474.56;;;12.20;45.65
40788;BME280;26497;52.494;7.546;2024-02-23T10:31:06;98477.34;;;12.58;45.50
40788;BME280;26497;52.494;7.546;2024-02-23T10:33:34;98481.56;;;12.62;45.22
40788;BME280;26497;52.494;7.546;2024-02-23T10:36:02;98484.97;;;12.85;44.78
40788;BME280;26497;52.494;7.546;2024-02-23T10:38:32;98486.25;;;12.76;44.76
40788;BME280;26497;52.494;7.546;2024-02-23T10:40:59;98484.31;;;13.20;44.42
40788;BME280;26497;52.494;7.546;2024-02-23T10:43:32;98499.66;;;12.72;44.77
40788;BME280;26497;52.494;7.546;2024-02-23T10:46:00;98500.13;;;12.40;45.44
40788;BME280;26497;52.494;7.546;2024-02-23T10:48:28;98501.72;;;12.65;45.11
40788;BME280;26497;52.494;7.546;2024-02-23T10:50:57;98507.59;;;12.72;45.14
40788;BME280;26497;52.494;7.546;2024-02-23T10:53:24;98502.59;;;12.45;45.11
40788;BME280;26497;52.494;7.546;2024-02-23T10:55:53;98506.75;;;12.50;45.40
40788;BME280;26497;52.494;7.546;2024-02-23T10:58:36;98501.19;;;12.57;44.83
40788;BME280;26497;52.494;7.546;2024-02-23T11:01:11;98500.59;;;12.29;45.03
40788;BME280;26497;52.494;7.546;2024-02-23T11:03:40;98510.38;;;12.05;45.68
40788;BME280;26497;52.494;7.546;2024-02-23T11:06:10;98498.84;;;12.07;45.54
40788;BME280;26497;52.494;7.546;2024-02-23T11:08:42;98502.00;;;12.38;45.55
40788;BME280;26497;52.494;7.546;2024-02-23T11:11:09;98494.41;;;12.30;45.44
40788;BME280;26497;52.494;7.546;2024-02-23T11:13:37;98520.06;;;12.27;45.75
40788;BME280;26497;52.494;7.546;2024-02-23T11:16:05;98500.88;;;12.44;45.45
40788;BME280;26497;52.494;7.546;2024-02-23T11:18:34;98508.78;;;12.23;45.50
40788;BME280;26497;52.494;7.546;2024-02-23T11:21:02;98499.41;;;12.36;45.54
40788;BME280;26497;52.494;7.546;2024-02-23T11:23:40;98512.78;;;12.54;45.65
40788;BME280;26497;52.494;7.546;2024-02-23T11:26:09;98497.47;;;12.19;45.97
40788;BME280;26497;52.494;7.546;2024-02-23T11:28:43;98494.53;;;12.27;45.87
40788;BME280;26497;52.494;7.546;2024-02-23T11:31:14;98507.44;;;12.13;45.99
40788;BME280;26497;52.494;7.546;2024-02-23T11:33:48;98496.13;;;12.52;45.44
40788;BME280;26497;52.494;7.546;2024-02-23T11:36:22;98490.66;;;12.76;45.17
40788;BME280;26497;52.494;7.546;2024-02-23T11:38:54;98495.09;;;12.34;45.97
40788;BME280;26497;52.494;7.546;2024-02-23T11:41:21;98486.56;;;12.06;45.87
40788;BME280;26497;52.494;7.546;2024-02-23T11:43:49;98494.41;;;12.51;45.51
40788;BME280;26497;52.494;7.546;2024-02-23T11:46:17;98491.69;;;12.52;45.60
40788;BME280;26497;52.494;7.546;2024-02-23T11:48:44;98492.13;;;12.83;44.88
40788;BME280;26497;52.494;7.546;2024-02-23T11:51:12;98496.47;;;12.84;44.82
40788;BME280;26497;52.494;7.546;2024-02-23T11:53:39;98489.38;;;13.05;44.34
40788;BME280;26497;52.494;7.546;2024-02-23T11:56:07;98495.09;;;13.34;43.60
40788;BME280;26497;52.494;7.546;2024-02-23T11:58:35;98497.75;;;13.15;43.95
40788;BME280;26497;52.494;7.546;2024-02-23T12:01:03;98499.28;;;13.21;44.42
40788;BME280;26497;52.494;7.546;2024-02-23T12:03:30;98497.16;;;13.48;44.90
40788;BME280;26497;52.494;7.546;2024-02-23T12:05:57;98503.94;;;13.54;45.03
40788;BME280;26497;52.494;7.546;2024-02-23T12:08:25;98515.91;;;12.83;47.72
40788;BME280;26497;52.494;7.546;2024-02-23T12:10:53;98539.28;;;12.09;51.78
40788;BME280;26497;52.494;7.546;2024-02-23T12:13:22;98534.31;;;11.08;56.71
40788;BME280;26497;52.494;7.546;2024-02-23T12:15:52;98539.50;;;10.60;59.89
40788;BME280;26497;52.494;7.546;2024-02-23T12:18:21;98533.00;;;10.71;61.92
40788;BME280;26497;52.494;7.546;2024-02-23T12:20:49;98542.19;;;10.59;62.09
40788;BME280;26497;52.494;7.546;2024-02-23T12:23:16;98537.47;;;10.69;63.16
40788;BME280;26497;52.494;7.546;2024-02-23T12:25:52;98536.91;;;10.84;62.64
40788;BME280;26497;52.494;7.546;2024-02-23T12:28:19;98541.72;;;11.22;61.49
40788;BME280;26497;52.494;7.546;2024-02-23T12:30:57;98533.00;;;11.44;59.94
40788;BME280;26497;52.494;7.546;2024-02-23T12:33:24;98550.00;;;11.59;59.38
40788;BME280;26497;52.494;7.546;2024-02-23T12:35:53;98543.81;;;11.60;58.98
40788;BME280;26497;52.494;7.546;2024-02-23T12:38:20;98557.81;;;11.38;61.06
40788;BME280;26497;52.494;7.546;2024-02-23T12:40:47;98558.22;;;11.03;61.93
40788;BME280;26497;52.494;7.546;2024-02-23T12:43:14;98559.81;;;10.30;65.26
40788;BME280;26497;52.494;7.546;2024-02-23T12:45:42;98564.19;;;10.02;67.01
40788;BME280;26497;52.494;7.546;2024-02-23T12:48:11;98567.91;;;9.95;68.51
40788;BME280;26497;52.494;7.546;2024-02-23T12:50:38;98577.78;;;10.17;68.06
40788;BME280;26497;52.494;7.546;2024-02-23T12:53:05;98576.00;;;10.46;67.48
40788;BME280;26497;52.494;7.546;2024-02-23T12:55:33;98569.78;;;10.49;66.99
40788;BME280;26497;52.494;7.546;2024-02-23T12:58:00;98568.00;;;10.74;66.86
40788;BME280;26497;52.494;7.546;2024-02-23T13:00:27;98564.00;;;10.89;66.61
40788;BME280;26497;52.494;7.546;2024-02-23T13:02:53;98570.56;;;11.27;65.05
40788;BME280;26497;52.494;7.546;2024-02-23T13:05:22;98561.88;;;11.25;63.50
40788;BME280;26497;52.494;7.546;2024-02-23T13:07:49;98570.34;;;11.09;63.71
40788;BME280;26497;52.494;7.546;2024-02-23T13:10:16;98561.31;;;11.15;63.13